sensor_id;sensor_type;location;lat;lon;timestamp;P1;durP1;ratioP1;P2;durP2;ratioP2
6243;SDS011;3155;49.940;8.450;2022-10-16T00:01:27;0.30;;;0.30;;
6243;SDS011;3155;49.940;8.450;2022-10-16T00:03:58;0.65;;;0.30;;
6243;SDS011;3155;49.940;8.450;2022-10-16T00:06:26;0.17;;;0.17;;
6243;SDS011;3155;49.940;8.450;2022-10-16T00:08:54;0.20;;;0.20;;
6243;SDS011;3155;49.940;8.450;2022-10-16T00:11:24;0.22;;;0.22;;
6243;SDS011;3155;49.940;8.450;2022-10-16T00:13:57;0.30;;;0.30;;
6243;SDS011;3155;49.940;8.450;2022-10-16T00:16:28;0.30;;;0.30;;
6243;SDS011;3155;49.940;8.450;2022-10-16T00:18:57;0.30;;;0.30;;
6243;SDS011;3155;49.940;8.450;2022-10-16T00:21:25;0.40;;;0.40;;
6243;SDS011;3155;49.940;8.450;2022-10-16T00:24:00;0.30;;;0.30;;
6243;SDS011;3155;49.940;8.450;2022-10-16T00:26:31;0.38;;;0.10;;
6243;SDS011;3155;49.940;8.450;2022-10-16T00:28:58;0.30;;;0.30;;
6243;SDS011;3155;49.940;8.450;2022-10-16T00:31:25;0.30;;;0.30;;
6243;SDS011;3155;49.940;8.450;2022-10-16T00:33:52;0.30;;;0.30;;
6243;SDS011;3155;49.940;8.450;2022-10-16T00:36:22;0.20;;;0.20;;
6243;SDS011;3155;49.940;8.450;2022-10-16T00:38:50;0.28;;;0.28;;
6243;SDS011;3155;49.940;8.450;2022-10-16T00:41:22;0.40;;;0.40;;
6243;SDS011;3155;49.940;8.450;2022-10-16T00:43:53;0.22;;;0.22;;
6243;SDS011;3155;49.940;8.450;2022-10-16T00:49:00;0.38;;;0.38;;
6243;SDS011;3155;49.940;8.450;2022-10-16T00:51:30;0.30;;;0.30;;
6243;SDS011;3155;49.940;8.450;2022-10-16T00:54:02;0.28;;;0.28;;
6243;SDS011;3155;49.940;8.450;2022-10-16T00:56:32;0.20;;;0.20;;
6243;SDS011;3155;49.940;8.450;2022-10-16T00:59:01;0.10;;;0.10;;
6243;SDS011;3155;49.940;8.450;2022-10-16T01:01:33;0.10;;;0.10;;
6243;SDS011;3155;49.940;8.450;2022-10-16T01:04:00;0.57;;;0.20;;
6243;SDS011;3155;49.940;8.450;2022-10-16T01:09:46;0.20;;;0.13;;
6243;SDS011;3155;49.940;8.450;2022-10-16T01:15:09;0.20;;;0.20;;
6243;SDS011;3155;49.940;8.450;2022-10-16T01:17:41;0.10;;;0.10;;
6243;SDS011;3155;49.940;8.450;2022-10-16T01:31:44;0.30;;;0.30;;
6243;SDS011;3155;49.940;8.450;2022-10-16T01:34:16;0.30;;;0.20;;
6243;SDS011;3155;49.940;8.450;2022-10-16T01:36:53;0.10;;;0.10;;
6243;SDS011;3155;49.940;8.450;2022-10-16T01:39:31;0.17;;;0.10;;
6243;SDS011;3155;49.940;8.450;2022-10-16T01:42:04;0.20;;;0.20;;
6243;SDS011;3155;49.940;8.450;2022-10-16T01:44:37;0.25;;;0.25;;
6243;SDS011;3155;49.940;8.450;2022-10-16T01:47:06;0.10;;;0.10;;
6243;SDS011;3155;49.940;8.450;2022-10-16T01:49:36;0.30;;;0.20;;
6243;SDS011;3155;49.940;8.450;2022-10-16T01:52:12;0.20;;;0.20;;
6243;SDS011;3155;49.940;8.450;2022-10-16T01:54:43;0.15;;;0.15;;
6243;SDS011;3155;49.940;8.450;2022-10-16T01:57:16;0.10;;;0.10;;
6243;SDS011;3155;49.940;8.450;2022-10-16T01:59:48;0.10;;;0.10;;
6243;SDS011;3155;49.940;8.450;2022-10-16T02:02:19;0.13;;;0.13;;
6243;SDS011;3155;49.940;8.450;2022-10-16T02:04:49;0.17;;;0.17;;
6243;SDS011;3155;49.940;8.450;2022-10-16T02:07:23;0.20;;;0.20;;
6243;SDS011;3155;49.940;8.450;2022-10-16T02:09:53;0.10;;;0.10;;
6243;SDS011;3155;49.940;8.450;2022-10-16T02:14:53;0.20;;;0.20;;
6243;SDS011;3155;49.940;8.450;2022-10-16T02:17:20;0.10;;;0.10;;
6243;SDS011;3155;49.940;8.450;2022-10-16T02:19:50;0.10;;;0.10;;
6243;SDS011;3155;49.940;8.450;2022-10-16T02:24:57;0.20;;;0.20;;
6243;SDS011;3155;49.940;8.450;2022-10-16T02:27:35;0.10;;;0.10;;
6243;SDS011;3155;49.940;8.450;2022-10-16T02:30:20;0.50;;;0.32;;
6243;SDS011;3155;49.940;8.450;2022-10-16T02:32:48;0.20;;;0.20;;
6243;SDS011;3155;49.940;8.450;2022-10-16T02:35:16;0.10;;;0.10;;
6243;SDS011;3155;49.940;8.450;2022-10-16T02:37:44;0.10;;;0.10;;
6243;SDS011;3155;49.940;8.450;2022-10-16T02:40:16;0.17;;;0.17;;
6243;SDS011;3155;49.940;8.450;2022-10-16T02:42:50;0.10;;;0.10;;
6243;SDS011;3155;49.940;8.450;2022-10-16T02:45:18;0.20;;;0.20;;
6243;SDS011;3155;49.940;8.450;2022-10-16T02:47:51;0.10;;;0.10;;
6243;SDS011;3155;49.940;8.450;2022-10-16T02:50:21;0.20;;;0.20;;
6243;SDS011;3155;49.940;8.450;2022-10-16T02:52:51;0.20;;;0.20;;
6243;SDS011;3155;49.940;8.450;2022-10-16T02:55:17;0.20;;;0.20;;
6243;SDS011;3155;49.940;8.450;2022-10-16T02:57:44;2.00;;;0.20;;
6243;SDS011;3155;49.940;8.450;2022-10-16T03:00:12;0.20;;;0.20;;
6243;SDS011;3155;49.940;8.450;2022-10-16T03:02:43;0.07;;;0.07;;
6243;SDS011;3155;49.940;8.450;2022-10-16T03:05:10;0.15;;;0.15;;
6243;SDS011;3155;49.940;8.450;2022-10-16T03:07:37;0.10;;;0.10;;
6243;SDS011;3155;49.940;8.450;2022-10-16T03:10:04;0.20;;;0.20;;
6243;SDS011;3155;49.940;8.450;2022-10-16T03:12:30;0.10;;;0.10;;
6243;SDS011;3155;49.940;8.450;2022-10-16T03:14:57;0.20;;;0.20;;
6243;SDS011;3155;49.940;8.450;2022-10-16T03:17:24;0.10;;;0.10;;
6243;SDS011;3155;49.940;8.450;2022-10-16T03:19:52;0.20;;;0.20;;
6243;SDS011;3155;49.940;8.450;2022-10-16T03:22:18;0.10;;;0.10;;
6243;SDS011;3155;49.940;8.450;2022-10-16T03:24:45;0.10;;;0.10;;
6243;SDS011;3155;49.940;8.450;2022-10-16T03:27:12;0.10;;;0.10;;
6243;SDS011;3155;49.940;8.450;2022-10-16T03:29:39;0.20;;;0.20;;
6243;SDS011;3155;49.940;8.450;2022-10-16T03:32:05;0.20;;;0.20;;
6243;SDS011;3155;49.940;8.450;2022-10-16T03:34:38;0.20;;;0.20;;
6243;SDS011;3155;49.940;8.450;2022-10-16T03:37:05;0.20;;;0.20;;
6243;SDS011;3155;49.940;8.450;2022-10-16T03:39:31;0.20;;;0.20;;
6243;SDS011;3155;49.940;8.450;2022-10-16T03:41:58;0.28;;;0.28;;
6243;SDS011;3155;49.940;8.450;2022-10-16T03:44:25;0.10;;;0.10;;
6243;SDS011;3155;49.940;8.450;2022-10-16T03:46:51;0.20;;;0.20;;
6243;SDS011;3155;49.940;8.450;2022-10-16T03:49:18;0.10;;;0.10;;
6243;SDS011;3155;49.940;8.450;2022-10-16T03:51:45;0.10;;;0.10;;
6243;SDS011;3155;49.940;8.450;2022-10-16T03:54:11;0.15;;;0.15;;
6243;SDS011;3155;49.940;8.450;2022-10-16T03:56:55;0.00;;;0.00;;
6243;SDS011;3155;49.940;8.450;2022-10-16T03:59:22;0.10;;;0.10;;
6243;SDS011;3155;49.940;8.450;2022-10-16T04:01:48;0.20;;;0.20;;
6243;SDS011;3155;49.940;8.450;2022-10-16T04:04:18;0.10;;;0.10;;
6243;SDS011;3155;49.940;8.450;2022-10-16T04:06:45;0.10;;;0.10;;
6243;SDS011;3155;49.940;8.450;2022-10-16T04:09:12;0.10;;;0.10;;
6243;SDS011;3155;49.940;8.450;2022-10-16T04:11:38;0.20;;;0.20;;
6243;SDS011;3155;49.940;8.450;2022-10-16T04:14:05;0.10;;;0.10;;
6243;SDS011;3155;49.940;8.450;2022-10-16T04:16:35;0.10;;;0.10;;
6243;SDS011;3155;49.940;8.450;2022-10-16T04:19:02;0.13;;;0.13;;
6243;SDS011;3155;49.940;8.450;2022-10-16T04:21:31;0.10;;;0.10;;
6243;SDS011;3155;49.940;8.450;2022-10-16T04:23:58;0.10;;;0.10;;
6243;SDS011;3155;49.940;8.450;2022-10-16T04:26:25;0.20;;;0.20;;
6243;SDS011;3155;49.940;8.450;2022-10-16T04:28:52;0.20;;;0.20;;
6243;SDS011;3155;49.940;8.450;2022-10-16T04:31:18;0.20;;;0.20;;
6243;SDS011;3155;49.940;8.450;2022-10-16T04:33:47;0.35;;;0.20;;
6243;SDS011;3155;49.940;8.450;2022-10-16T04:36:17;0.20;;;0.20;;
6243;SDS011;3155;49.940;8.450;2022-10-16T04:38:44;0.10;;;0.10;;
6243;SDS011;3155;49.940;8.450;2022-10-16T04:41:13;0.20;;;0.20;;
6243;SDS011;3155;49.940;8.450;2022-10-16T04:43:43;0.20;;;0.20;;
6243;SDS011;3155;49.940;8.450;2022-10-16T04:46:12;0.22;;;0.22;;
6243;SDS011;3155;49.940;8.450;2022-10-16T04:48:39;0.13;;;0.13;;
6243;SDS011;3155;49.940;8.450;2022-10-16T04:51:06;0.10;;;0.10;;
6243;SDS011;3155;49.940;8.450;2022-10-16T04:53:32;0.13;;;0.13;;
6243;SDS011;3155;49.940;8.450;2022-10-16T04:56:06;0.10;;;0.10;;
6243;SDS011;3155;49.940;8.450;2022-10-16T04:58:32;0.20;;;0.20;;
6243;SDS011;3155;49.940;8.450;2022-10-16T05:01:02;0.20;;;0.20;;
6243;SDS011;3155;49.940;8.450;2022-10-16T05:03:29;0.10;;;0.10;;
6243;SDS011;3155;49.940;8.450;2022-10-16T05:05:58;0.10;;;0.10;;
6243;SDS011;3155;49.940;8.450;2022-10-16T05:08:24;0.10;;;0.10;;
6243;SDS011;3155;49.940;8.450;2022-10-16T05:10:51;0.10;;;0.10;;
6243;SDS011;3155;49.940;8.450;2022-10-16T05:13:18;0.28;;;0.28;;
6243;SDS011;3155;49.940;8.450;2022-10-16T05:15:47;0.30;;;0.30;;
6243;SDS011;3155;49.940;8.450;2022-10-16T05:18:14;0.20;;;0.20;;
6243;SDS011;3155;49.940;8.450;2022-10-16T05:20:41;0.10;;;0.10;;
6243;SDS011;3155;49.940;8.450;2022-10-16T05:23:08;0.10;;;0.10;;
6243;SDS011;3155;49.940;8.450;2022-10-16T05:25:43;0.20;;;0.20;;
6243;SDS011;3155;49.940;8.450;2022-10-16T05:28:28;0.10;;;0.10;;
6243;SDS011;3155;49.940;8.450;2022-10-16T05:30:56;0.30;;;0.30;;
6243;SDS011;3155;49.940;8.450;2022-10-16T05:33:23;0.30;;;0.30;;
6243;SDS011;3155;49.940;8.450;2022-10-16T05:35:51;0.10;;;0.10;;
6243;SDS011;3155;49.940;8.450;2022-10-16T05:38:25;0.10;;;0.10;;
6243;SDS011;3155;49.940;8.450;2022-10-16T05:40:55;0.10;;;0.10;;
6243;SDS011;3155;49.940;8.450;2022-10-16T05:43:22;0.20;;;0.20;;
6243;SDS011;3155;49.940;8.450;2022-10-16T05:45:56;0.10;;;0.10;;
6243;SDS011;3155;49.940;8.450;2022-10-16T05:48:24;0.40;;;0.35;;
6243;SDS011;3155;49.940;8.450;2022-10-16T05:51:01;0.38;;;0.17;;
6243;SDS011;3155;49.940;8.450;2022-10-16T05:53:30;0.10;;;0.10;;
6243;SDS011;3155;49.940;8.450;2022-10-16T05:55:58;0.10;;;0.10;;
6243;SDS011;3155;49.940;8.450;2022-10-16T05:58:28;0.30;;;0.30;;
6243;SDS011;3155;49.940;8.450;2022-10-16T06:01:06;0.30;;;0.30;;
6243;SDS011;3155;49.940;8.450;2022-10-16T06:03:38;0.40;;;0.40;;
6243;SDS011;3155;49.940;8.450;2022-10-16T06:06:14;0.43;;;0.20;;
6243;SDS011;3155;49.940;8.450;2022-10-16T06:08:46;0.28;;;0.28;;
6243;SDS011;3155;49.940;8.450;2022-10-16T06:11:22;0.30;;;0.20;;
6243;SDS011;3155;49.940;8.450;2022-10-16T06:13:54;0.30;;;0.30;;
6243;SDS011;3155;49.940;8.450;2022-10-16T06:16:23;0.30;;;0.30;;
6243;SDS011;3155;49.940;8.450;2022-10-16T06:18:51;0.30;;;0.30;;
6243;SDS011;3155;49.940;8.450;2022-10-16T06:21:22;0.32;;;0.32;;
6243;SDS011;3155;49.940;8.450;2022-10-16T06:23:51;0.10;;;0.10;;
6243;SDS011;3155;49.940;8.450;2022-10-16T06:26:22;0.30;;;0.30;;
6243;SDS011;3155;49.940;8.450;2022-10-16T06:28:54;0.30;;;0.30;;
6243;SDS011;3155;49.940;8.450;2022-10-16T06:31:28;0.32;;;0.32;;
6243;SDS011;3155;49.940;8.450;2022-10-16T06:33:57;0.30;;;0.30;;
6243;SDS011;3155;49.940;8.450;2022-10-16T06:36:25;0.30;;;0.30;;
6243;SDS011;3155;49.940;8.450;2022-10-16T06:38:54;0.30;;;0.30;;
6243;SDS011;3155;49.940;8.450;2022-10-16T06:41:21;0.30;;;0.30;;
6243;SDS011;3155;49.940;8.450;2022-10-16T06:43:48;0.40;;;0.40;;
6243;SDS011;3155;49.940;8.450;2022-10-16T06:46:16;0.30;;;0.30;;
6243;SDS011;3155;49.940;8.450;2022-10-16T06:48:44;0.32;;;0.32;;
6243;SDS011;3155;49.940;8.450;2022-10-16T06:51:15;0.70;;;0.20;;
6243;SDS011;3155;49.940;8.450;2022-10-16T06:53:52;0.30;;;0.30;;
6243;SDS011;3155;49.940;8.450;2022-10-16T06:56:30;1.00;;;0.40;;
6243;SDS011;3155;49.940;8.450;2022-10-16T06:58:58;0.30;;;0.30;;
6243;SDS011;3155;49.940;8.450;2022-10-16T07:01:25;0.30;;;0.30;;
6243;SDS011;3155;49.940;8.450;2022-10-16T07:03:52;0.35;;;0.35;;
6243;SDS011;3155;49.940;8.450;2022-10-16T07:06:22;0.40;;;0.30;;
6243;SDS011;3155;49.940;8.450;2022-10-16T07:08:51;0.40;;;0.40;;
6243;SDS011;3155;49.940;8.450;2022-10-16T07:11:20;0.47;;;0.47;;
6243;SDS011;3155;49.940;8.450;2022-10-16T07:13:49;0.50;;;0.50;;
6243;SDS011;3155;49.940;8.450;2022-10-16T07:16:22;2.80;;;0.45;;
6243;SDS011;3155;49.940;8.450;2022-10-16T07:18:53;0.40;;;0.40;;
6243;SDS011;3155;49.940;8.450;2022-10-16T07:21:25;0.60;;;0.50;;
6243;SDS011;3155;49.940;8.450;2022-10-16T07:23:55;0.50;;;0.50;;
6243;SDS011;3155;49.940;8.450;2022-10-16T07:26:24;0.65;;;0.65;;
6243;SDS011;3155;49.940;8.450;2022-10-16T07:28:53;0.40;;;0.40;;
6243;SDS011;3155;49.940;8.450;2022-10-16T07:31:23;0.40;;;0.40;;
6243;SDS011;3155;49.940;8.450;2022-10-16T07:33:51;0.40;;;0.40;;
6243;SDS011;3155;49.940;8.450;2022-10-16T07:36:18;0.35;;;0.35;;
6243;SDS011;3155;49.940;8.450;2022-10-16T07:38:46;0.30;;;0.30;;
6243;SDS011;3155;49.940;8.450;2022-10-16T07:41:15;0.30;;;0.30;;
6243;SDS011;3155;49.940;8.450;2022-10-16T07:43:57;0.43;;;0.43;;
6243;SDS011;3155;49.940;8.450;2022-10-16T07:46:26;0.40;;;0.40;;
6243;SDS011;3155;49.940;8.450;2022-10-16T07:48:56;0.30;;;0.30;;
6243;SDS011;3155;49.940;8.450;2022-10-16T07:51:25;0.40;;;0.40;;
6243;SDS011;3155;49.940;8.450;2022-10-16T07:53:53;0.30;;;0.30;;
6243;SDS011;3155;49.940;8.450;2022-10-16T07:56:20;0.30;;;0.30;;
6243;SDS011;3155;49.940;8.450;2022-10-16T07:58:47;0.30;;;0.30;;
6243;SDS011;3155;49.940;8.450;2022-10-16T08:01:19;0.30;;;0.30;;
6243;SDS011;3155;49.940;8.450;2022-10-16T08:03:49;0.40;;;0.40;;
6243;SDS011;3155;49.940;8.450;2022-10-16T08:06:20;0.45;;;0.45;;
6243;SDS011;3155;49.940;8.450;2022-10-16T08:08:53;0.30;;;0.30;;
6243;SDS011;3155;49.940;8.450;2022-10-16T08:11:20;0.40;;;0.40;;
6243;SDS011;3155;49.940;8.450;2022-10-16T08:13:47;0.30;;;0.30;;
6243;SDS011;3155;49.940;8.450;2022-10-16T08:16:13;0.50;;;0.38;;
6243;SDS011;3155;49.940;8.450;2022-10-16T08:18:40;0.35;;;0.35;;
6243;SDS011;3155;49.940;8.450;2022-10-16T08:21:08;0.47;;;0.47;;
6243;SDS011;3155;49.940;8.450;2022-10-16T08:23:46;0.30;;;0.30;;
6243;SDS011;3155;49.940;8.450;2022-10-16T08:26:22;0.30;;;0.30;;
6243;SDS011;3155;49.940;8.450;2022-10-16T08:28:51;0.20;;;0.20;;
6243;SDS011;3155;49.940;8.450;2022-10-16T08:31:22;0.40;;;0.40;;
6243;SDS011;3155;49.940;8.450;2022-10-16T08:33:49;0.32;;;0.32;;
6243;SDS011;3155;49.940;8.450;2022-10-16T08:36:17;0.57;;;0.55;;
6243;SDS011;3155;49.940;8.450;2022-10-16T08:38:44;0.38;;;0.38;;
6243;SDS011;3155;49.940;8.450;2022-10-16T08:41:22;0.32;;;0.32;;
6243;SDS011;3155;49.940;8.450;2022-10-16T08:44:30;0.43;;;0.43;;
6243;SDS011;3155;49.940;8.450;2022-10-16T08:50:00;0.45;;;0.45;;
6243;SDS011;3155;49.940;8.450;2022-10-16T08:52:35;0.40;;;0.40;;
6243;SDS011;3155;49.940;8.450;2022-10-16T08:55:10;0.38;;;0.38;;
6243;SDS011;3155;49.940;8.450;2022-10-16T08:58:10;0.77;;;0.43;;
6243;SDS011;3155;49.940;8.450;2022-10-16T09:01:13;0.40;;;0.40;;
6243;SDS011;3155;49.940;8.450;2022-10-16T09:04:00;0.22;;;0.22;;
6243;SDS011;3155;49.940;8.450;2022-10-16T09:07:04;0.50;;;0.50;;
6243;SDS011;3155;49.940;8.450;2022-10-16T09:23:47;0.50;;;0.50;;
6243;SDS011;3155;49.940;8.450;2022-10-16T09:26:14;0.60;;;0.60;;
6243;SDS011;3155;49.940;8.450;2022-10-16T09:28:42;0.50;;;0.50;;
6243;SDS011;3155;49.940;8.450;2022-10-16T09:31:30;0.50;;;0.50;;
6243;SDS011;3155;49.940;8.450;2022-10-16T09:33:59;0.60;;;0.60;;
6243;SDS011;3155;49.940;8.450;2022-10-16T09:36:37;0.70;;;0.70;;
6243;SDS011;3155;49.940;8.450;2022-10-16T09:39:08;0.60;;;0.60;;
6243;SDS011;3155;49.940;8.450;2022-10-16T09:41:41;0.98;;;0.98;;
6243;SDS011;3155;49.940;8.450;2022-10-16T09:47:06;1.50;;;0.85;;
6243;SDS011;3155;49.940;8.450;2022-10-16T09:52:25;0.60;;;0.60;;
6243;SDS011;3155;49.940;8.450;2022-10-16T09:54:53;0.60;;;0.60;;
6243;SDS011;3155;49.940;8.450;2022-10-16T09:57:22;0.70;;;0.70;;
6243;SDS011;3155;49.940;8.450;2022-10-16T09:59:51;0.77;;;0.77;;
6243;SDS011;3155;49.940;8.450;2022-10-16T10:02:35;0.80;;;0.80;;
6243;SDS011;3155;49.940;8.450;2022-10-16T10:05:16;0.40;;;0.40;;
6243;SDS011;3155;49.940;8.450;2022-10-16T10:07:57;0.50;;;0.50;;
6243;SDS011;3155;49.940;8.450;2022-10-16T10:10:29;0.68;;;0.68;;
6243;SDS011;3155;49.940;8.450;2022-10-16T10:12:57;0.70;;;0.70;;
6243;SDS011;3155;49.940;8.450;2022-10-16T10:15:25;1.00;;;0.90;;
6243;SDS011;3155;49.940;8.450;2022-10-16T10:17:58;0.75;;;0.75;;
6243;SDS011;3155;49.940;8.450;2022-10-16T10:20:28;1.42;;;1.25;;
6243;SDS011;3155;49.940;8.450;2022-10-16T10:22:58;0.70;;;0.70;;
6243;SDS011;3155;49.940;8.450;2022-10-16T10:30:53;0.68;;;0.68;;
6243;SDS011;3155;49.940;8.450;2022-10-16T10:38:49;0.70;;;0.60;;
6243;SDS011;3155;49.940;8.450;2022-10-16T10:44:15;0.63;;;0.63;;
6243;SDS011;3155;49.940;8.450;2022-10-16T10:46:56;0.73;;;0.73;;
6243;SDS011;3155;49.940;8.450;2022-10-16T10:52:53;0.73;;;0.73;;
6243;SDS011;3155;49.940;8.450;2022-10-16T10:55:45;0.60;;;0.60;;
6243;SDS011;3155;49.940;8.450;2022-10-16T11:07:04;0.65;;;0.65;;
6243;SDS011;3155;49.940;8.450;2022-10-16T11:09:45;0.52;;;0.52;;
6243;SDS011;3155;49.940;8.450;2022-10-16T11:12:18;0.57;;;0.57;;
6243;SDS011;3155;49.940;8.450;2022-10-16T11:15:12;0.50;;;0.50;;
6243;SDS011;3155;49.940;8.450;2022-10-16T11:17:52;0.60;;;0.60;;
6243;SDS011;3155;49.940;8.450;2022-10-16T11:20:22;0.60;;;0.60;;
6243;SDS011;3155;49.940;8.450;2022-10-16T11:23:37;0.60;;;0.60;;
6243;SDS011;3155;49.940;8.450;2022-10-16T11:25:52;1.00;;;0.55;;
6243;SDS011;3155;49.940;8.450;2022-10-16T11:31:10;0.77;;;0.77;;
6243;SDS011;3155;49.940;8.450;2022-10-16T11:33:46;2.17;;;0.63;;
6243;SDS011;3155;49.940;8.450;2022-10-16T11:36:44;0.60;;;0.60;;
6243;SDS011;3155;49.940;8.450;2022-10-16T11:41:47;0.40;;;0.40;;
6243;SDS011;3155;49.940;8.450;2022-10-16T11:44:38;0.70;;;0.65;;
6243;SDS011;3155;49.940;8.450;2022-10-16T11:50:25;0.40;;;0.40;;
6243;SDS011;3155;49.940;8.450;2022-10-16T11:56:18;0.60;;;0.60;;
6243;SDS011;3155;49.940;8.450;2022-10-16T12:01:43;0.50;;;0.50;;
6243;SDS011;3155;49.940;8.450;2022-10-16T12:04:20;0.50;;;0.50;;
6243;SDS011;3155;49.940;8.450;2022-10-16T12:07:01;0.40;;;0.40;;
6243;SDS011;3155;49.940;8.450;2022-10-16T12:09:39;0.50;;;0.50;;
6243;SDS011;3155;49.940;8.450;2022-10-16T12:12:27;0.30;;;0.30;;
6243;SDS011;3155;49.940;8.450;2022-10-16T12:18:21;0.90;;;0.40;;
6243;SDS011;3155;49.940;8.450;2022-10-16T12:21:01;0.40;;;0.40;;
6243;SDS011;3155;49.940;8.450;2022-10-16T12:23:36;0.40;;;0.40;;
6243;SDS011;3155;49.940;8.450;2022-10-16T12:26:04;0.40;;;0.40;;
6243;SDS011;3155;49.940;8.450;2022-10-16T12:28:32;0.90;;;0.50;;
6243;SDS011;3155;49.940;8.450;2022-10-16T12:33:34;0.40;;;0.40;;
6243;SDS011;3155;49.940;8.450;2022-10-16T12:36:30;0.40;;;0.40;;
6243;SDS011;3155;49.940;8.450;2022-10-16T12:39:01;0.30;;;0.30;;
6243;SDS011;3155;49.940;8.450;2022-10-16T12:41:29;0.40;;;0.40;;
6243;SDS011;3155;49.940;8.450;2022-10-16T12:43:58;0.30;;;0.30;;
6243;SDS011;3155;49.940;8.450;2022-10-16T12:51:42;0.40;;;0.40;;
6243;SDS011;3155;49.940;8.450;2022-10-16T12:54:16;0.50;;;0.50;;
6243;SDS011;3155;49.940;8.450;2022-10-16T13:00:14;0.50;;;0.50;;
6243;SDS011;3155;49.940;8.450;2022-10-16T13:03:03;0.30;;;0.30;;
6243;SDS011;3155;49.940;8.450;2022-10-16T13:05:51;0.50;;;0.40;;
6243;SDS011;3155;49.940;8.450;2022-10-16T13:08:43;0.50;;;0.50;;
6243;SDS011;3155;49.940;8.450;2022-10-16T13:11:25;0.50;;;0.50;;
6243;SDS011;3155;49.940;8.450;2022-10-16T13:28:58;0.50;;;0.50;;
6243;SDS011;3155;49.940;8.450;2022-10-16T13:31:26;0.50;;;0.50;;
6243;SDS011;3155;49.940;8.450;2022-10-16T13:33:55;0.40;;;0.40;;
6243;SDS011;3155;49.940;8.450;2022-10-16T13:36:26;0.45;;;0.45;;
6243;SDS011;3155;49.940;8.450;2022-10-16T13:39:12;0.60;;;0.60;;
6243;SDS011;3155;49.940;8.450;2022-10-16T13:41:58;0.40;;;0.40;;
6243;SDS011;3155;49.940;8.450;2022-10-16T13:44:40;0.32;;;0.32;;
6243;SDS011;3155;49.940;8.450;2022-10-16T13:47:17;1.00;;;0.37;;
6243;SDS011;3155;49.940;8.450;2022-10-16T13:49:46;0.60;;;0.50;;
6243;SDS011;3155;49.940;8.450;2022-10-16T13:52:19;0.47;;;0.47;;
6243;SDS011;3155;49.940;8.450;2022-10-16T13:54:52;0.50;;;0.50;;
6243;SDS011;3155;49.940;8.450;2022-10-16T13:57:26;0.50;;;0.50;;
6243;SDS011;3155;49.940;8.450;2022-10-16T13:59:53;0.50;;;0.50;;
6243;SDS011;3155;49.940;8.450;2022-10-16T14:02:22;2.30;;;0.60;;
6243;SDS011;3155;49.940;8.450;2022-10-16T14:04:53;0.50;;;0.50;;
6243;SDS011;3155;49.940;8.450;2022-10-16T14:07:24;0.50;;;0.50;;
6243;SDS011;3155;49.940;8.450;2022-10-16T14:12:57;0.40;;;0.40;;
6243;SDS011;3155;49.940;8.450;2022-10-16T14:15:25;0.60;;;0.60;;
6243;SDS011;3155;49.940;8.450;2022-10-16T14:17:55;0.50;;;0.50;;
6243;SDS011;3155;49.940;8.450;2022-10-16T14:20:29;0.50;;;0.50;;
6243;SDS011;3155;49.940;8.450;2022-10-16T14:22:59;0.50;;;0.50;;
6243;SDS011;3155;49.940;8.450;2022-10-16T14:25:28;0.60;;;0.60;;
6243;SDS011;3155;49.940;8.450;2022-10-16T14:28:17;0.40;;;0.40;;
6243;SDS011;3155;49.940;8.450;2022-10-16T14:33:21;0.60;;;0.60;;
6243;SDS011;3155;49.940;8.450;2022-10-16T14:38:40;0.70;;;0.70;;
6243;SDS011;3155;49.940;8.450;2022-10-16T14:41:19;0.45;;;0.45;;
6243;SDS011;3155;49.940;8.450;2022-10-16T14:43:51;0.60;;;0.60;;
6243;SDS011;3155;49.940;8.450;2022-10-16T14:49:05;0.60;;;0.60;;
6243;SDS011;3155;49.940;8.450;2022-10-16T14:51:46;0.60;;;0.60;;
6243;SDS011;3155;49.940;8.450;2022-10-16T14:54:14;1.60;;;0.67;;
6243;SDS011;3155;49.940;8.450;2022-10-16T14:59:24;0.50;;;0.50;;
6243;SDS011;3155;49.940;8.450;2022-10-16T15:01:56;0.50;;;0.50;;
6243;SDS011;3155;49.940;8.450;2022-10-16T15:04:23;0.60;;;0.60;;
6243;SDS011;3155;49.940;8.450;2022-10-16T15:06:56;0.63;;;0.63;;
6243;SDS011;3155;49.940;8.450;2022-10-16T15:09:25;0.50;;;0.50;;
6243;SDS011;3155;49.940;8.450;2022-10-16T15:11:52;0.55;;;0.55;;
6243;SDS011;3155;49.940;8.450;2022-10-16T15:14:21;0.60;;;0.60;;
6243;SDS011;3155;49.940;8.450;2022-10-16T15:16:48;0.50;;;0.50;;
6243;SDS011;3155;49.940;8.450;2022-10-16T15:19:17;0.65;;;0.52;;
6243;SDS011;3155;49.940;8.450;2022-10-16T15:21:46;0.50;;;0.50;;
6243;SDS011;3155;49.940;8.450;2022-10-16T15:24:13;0.60;;;0.60;;
6243;SDS011;3155;49.940;8.450;2022-10-16T15:26:49;0.63;;;0.63;;
6243;SDS011;3155;49.940;8.450;2022-10-16T15:29:16;0.80;;;0.80;;
6243;SDS011;3155;49.940;8.450;2022-10-16T15:31:48;1.20;;;0.60;;
6243;SDS011;3155;49.940;8.450;2022-10-16T15:34:15;0.60;;;0.60;;
6243;SDS011;3155;49.940;8.450;2022-10-16T15:36:45;0.57;;;0.57;;
6243;SDS011;3155;49.940;8.450;2022-10-16T15:39:14;0.68;;;0.68;;
6243;SDS011;3155;49.940;8.450;2022-10-16T15:41:42;0.68;;;0.60;;
6243;SDS011;3155;49.940;8.450;2022-10-16T15:44:10;0.60;;;0.60;;
6243;SDS011;3155;49.940;8.450;2022-10-16T15:46:42;0.70;;;0.70;;
6243;SDS011;3155;49.940;8.450;2022-10-16T15:49:12;0.87;;;0.70;;
6243;SDS011;3155;49.940;8.450;2022-10-16T15:51:42;0.70;;;0.70;;
6243;SDS011;3155;49.940;8.450;2022-10-16T15:54:09;0.50;;;0.50;;
6243;SDS011;3155;49.940;8.450;2022-10-16T15:56:36;0.55;;;0.55;;
6243;SDS011;3155;49.940;8.450;2022-10-16T15:59:03;0.40;;;0.40;;
6243;SDS011;3155;49.940;8.450;2022-10-16T16:01:34;0.60;;;0.60;;
6243;SDS011;3155;49.940;8.450;2022-10-16T16:04:01;0.73;;;0.73;;
6243;SDS011;3155;49.940;8.450;2022-10-16T16:06:40;0.50;;;0.50;;
6243;SDS011;3155;49.940;8.450;2022-10-16T16:09:11;0.60;;;0.60;;
6243;SDS011;3155;49.940;8.450;2022-10-16T16:11:43;0.70;;;0.70;;
6243;SDS011;3155;49.940;8.450;2022-10-16T16:14:10;0.73;;;0.73;;
6243;SDS011;3155;49.940;8.450;2022-10-16T16:16:39;0.90;;;0.90;;
6243;SDS011;3155;49.940;8.450;2022-10-16T16:19:05;1.50;;;0.95;;
6243;SDS011;3155;49.940;8.450;2022-10-16T16:21:37;0.60;;;0.60;;
6243;SDS011;3155;49.940;8.450;2022-10-16T16:24:04;0.70;;;0.70;;
6243;SDS011;3155;49.940;8.450;2022-10-16T16:26:34;0.50;;;0.50;;
6243;SDS011;3155;49.940;8.450;2022-10-16T16:29:03;0.60;;;0.60;;
6243;SDS011;3155;49.940;8.450;2022-10-16T16:31:31;0.77;;;0.77;;
6243;SDS011;3155;49.940;8.450;2022-10-16T16:33:59;0.80;;;0.80;;
6243;SDS011;3155;49.940;8.450;2022-10-16T16:36:29;1.02;;;0.70;;
6243;SDS011;3155;49.940;8.450;2022-10-16T16:39:02;0.60;;;0.60;;
6243;SDS011;3155;49.940;8.450;2022-10-16T16:41:30;0.60;;;0.60;;
6243;SDS011;3155;49.940;8.450;2022-10-16T16:44:03;0.52;;;0.52;;
6243;SDS011;3155;49.940;8.450;2022-10-16T16:46:38;0.60;;;0.60;;
6243;SDS011;3155;49.940;8.450;2022-10-16T16:49:05;0.70;;;0.70;;
6243;SDS011;3155;49.940;8.450;2022-10-16T16:51:35;0.52;;;0.52;;
6243;SDS011;3155;49.940;8.450;2022-10-16T16:54:06;0.55;;;0.55;;
6243;SDS011;3155;49.940;8.450;2022-10-16T16:56:34;0.68;;;0.68;;
6243;SDS011;3155;49.940;8.450;2022-10-16T16:59:01;0.50;;;0.50;;
6243;SDS011;3155;49.940;8.450;2022-10-16T17:01:31;0.60;;;0.60;;
6243;SDS011;3155;49.940;8.450;2022-10-16T17:04:06;0.50;;;0.50;;
6243;SDS011;3155;49.940;8.450;2022-10-16T17:06:34;0.60;;;0.60;;
6243;SDS011;3155;49.940;8.450;2022-10-16T17:09:01;1.58;;;0.82;;
6243;SDS011;3155;49.940;8.450;2022-10-16T17:11:36;0.65;;;0.65;;
6243;SDS011;3155;49.940;8.450;2022-10-16T17:14:14;0.65;;;0.65;;
6243;SDS011;3155;49.940;8.450;2022-10-16T17:16:41;0.50;;;0.50;;
6243;SDS011;3155;49.940;8.450;2022-10-16T17:19:12;2.40;;;0.80;;
6243;SDS011;3155;49.940;8.450;2022-10-16T17:21:52;0.80;;;0.70;;
6243;SDS011;3155;49.940;8.450;2022-10-16T17:24:30;0.50;;;0.50;;
6243;SDS011;3155;49.940;8.450;2022-10-16T17:26:57;0.75;;;0.75;;
6243;SDS011;3155;49.940;8.450;2022-10-16T17:29:24;0.65;;;0.65;;
6243;SDS011;3155;49.940;8.450;2022-10-16T17:31:54;0.43;;;0.43;;
6243;SDS011;3155;49.940;8.450;2022-10-16T17:34:22;0.50;;;0.50;;
6243;SDS011;3155;49.940;8.450;2022-10-16T17:36:54;0.70;;;0.70;;
6243;SDS011;3155;49.940;8.450;2022-10-16T17:39:21;0.67;;;0.67;;
6243;SDS011;3155;49.940;8.450;2022-10-16T17:41:48;0.83;;;0.83;;
6243;SDS011;3155;49.940;8.450;2022-10-16T17:44:15;0.80;;;0.80;;
6243;SDS011;3155;49.940;8.450;2022-10-16T17:46:48;0.68;;;0.68;;
6243;SDS011;3155;49.940;8.450;2022-10-16T17:49:17;0.52;;;0.52;;
6243;SDS011;3155;49.940;8.450;2022-10-16T17:51:50;1.00;;;1.00;;
6243;SDS011;3155;49.940;8.450;2022-10-16T17:54:19;0.95;;;0.75;;